createdAt,value
2018-09-25T00:00:51.002Z,5.26
2018-09-25T00:03:24.535Z,5.19
2018-09-25T00:05:58.125Z,5.18
2018-09-25T00:08:31.721Z,5.26
2018-09-25T00:11:05.128Z,5.15
2018-09-25T00:13:38.704Z,5.24
2018-09-25T00:16:12.209Z,5.26
2018-09-25T00:18:45.845Z,5.19
2018-09-25T00:21:19.204Z,5.19
2018-09-25T00:23:52.712Z,5.16
2018-09-25T00:26:26.112Z,5.21
2018-09-25T00:28:59.604Z,5.17
2018-09-25T00:31:33.192Z,5.17
2018-09-25T00:34:06.760Z,5.13
2018-09-25T00:36:40.301Z,5.12
2018-09-25T00:39:14.588Z,5.13
2018-09-25T00:41:48.132Z,5.06
2018-09-25T00:44:21.664Z,5.06
2018-09-25T00:46:55.199Z,5.11
2018-09-25T00:49:28.766Z,5.13
2018-09-25T00:52:02.214Z,5.17
2018-09-25T00:54:35.620Z,5.10
2018-09-25T00:57:09.180Z,5.11
2018-09-25T00:59:42.712Z,5.20
2018-09-25T01:02:16.235Z,5.15
2018-09-25T01:04:49.802Z,5.15
2018-09-25T01:07:23.252Z,5.26
2018-09-25T01:09:56.692Z,5.20
2018-09-25T01:12:30.142Z,5.22
2018-09-25T01:15:03.550Z,5.27
2018-09-25T01:17:37.166Z,5.29
2018-09-25T01:20:10.690Z,5.38
2018-09-25T01:22:44.273Z,5.38
2018-09-25T01:25:17.872Z,5.35
2018-09-25T01:27:51.224Z,5.39
2018-09-25T01:30:24.721Z,5.41
2018-09-25T01:32:58.149Z,5.34
2018-09-25T01:35:31.672Z,5.35
2018-09-25T01:38:05.277Z,5.43
2018-09-25T01:40:38.705Z,5.44
2018-09-25T01:43:12.368Z,5.37
2018-09-25T01:45:45.839Z,5.34
2018-09-25T01:48:19.249Z,5.34
2018-09-25T01:50:52.860Z,5.35
2018-09-25T01:53:26.317Z,5.38
2018-09-25T01:55:59.779Z,5.34
2018-09-25T01:58:33.284Z,5.37
2018-09-25T02:01:06.756Z,5.42
2018-09-25T02:03:40.120Z,5.45
2018-09-25T02:06:13.686Z,5.50
2018-09-25T02:08:47.312Z,5.54
2018-09-25T02:11:20.919Z,5.52
2018-09-25T02:13:54.372Z,5.53
2018-09-25T02:16:27.813Z,5.48
2018-09-25T02:19:01.345Z,5.52
2018-09-25T02:21:34.969Z,5.51
2018-09-25T02:24:08.425Z,5.57
2018-09-25T02:26:41.836Z,5.52
2018-09-25T02:29:15.243Z,5.50
2018-09-25T02:31:48.785Z,5.43
2018-09-25T02:34:22.324Z,5.53
2018-09-25T02:36:55.881Z,5.38
2018-09-25T02:39:29.317Z,5.37
2018-09-25T02:42:02.876Z,5.47
2018-09-25T02:44:36.501Z,5.41
2018-09-25T02:47:10.087Z,5.30
2018-09-25T02:49:43.653Z,5.22
2018-09-25T02:52:17.163Z,5.24
2018-09-25T02:54:50.809Z,5.36
2018-09-25T02:57:24.389Z,5.44
2018-09-25T02:59:57.976Z,5.50
2018-09-25T03:02:31.535Z,5.49
2018-09-25T03:05:05.078Z,5.44
2018-09-25T03:07:38.569Z,5.37
2018-09-25T03:10:12.181Z,5.36
2018-09-25T03:12:45.708Z,5.36
2018-09-25T03:15:19.181Z,5.42
2018-09-25T03:17:52.744Z,5.47
2018-09-25T03:20:26.176Z,5.46
2018-09-25T03:22:59.709Z,5.41
2018-09-25T03:25:33.205Z,5.38
2018-09-25T03:28:06.726Z,5.35
2018-09-25T03:30:40.260Z,5.39
2018-09-25T03:33:13.757Z,5.46
2018-09-25T03:35:47.285Z,5.54
2018-09-25T03:38:20.805Z,5.53
2018-09-25T03:40:54.292Z,5.51
2018-09-25T03:43:27.752Z,5.49
2018-09-25T03:46:01.160Z,5.47
2018-09-25T03:48:34.567Z,5.47
2018-09-25T03:51:07.986Z,5.49
2018-09-25T03:53:41.492Z,5.43
2018-09-25T03:56:14.887Z,5.47
2018-09-25T03:58:48.280Z,5.54
2018-09-25T04:01:21.836Z,5.47
2018-09-25T04:03:55.325Z,5.37
2018-09-25T04:06:28.736Z,5.27
2018-09-25T04:09:02.296Z,5.30
2018-09-25T04:11:35.703Z,5.33
2018-09-25T04:14:09.289Z,5.41
2018-09-25T04:16:42.685Z,5.41
2018-09-25T04:19:16.011Z,5.37
2018-09-25T04:21:49.609Z,5.44
2018-09-25T04:24:23.004Z,5.51
2018-09-25T04:26:56.517Z,5.62
2018-09-25T04:29:30.032Z,5.75
2018-09-25T04:32:03.501Z,5.84
2018-09-25T04:34:36.961Z,5.81
2018-09-25T04:37:10.333Z,5.71
2018-09-25T04:39:43.709Z,5.68
2018-09-25T04:42:17.342Z,5.67
2018-09-25T04:44:50.910Z,5.67
2018-09-25T04:47:24.412Z,5.64
2018-09-25T04:49:58.032Z,5.60
2018-09-25T04:52:31.624Z,5.52
2018-09-25T04:55:05.134Z,5.51
2018-09-25T04:57:38.634Z,5.54
2018-09-25T05:00:12.237Z,5.50
2018-09-25T05:02:45.968Z,5.51
2018-09-25T05:05:19.384Z,5.51
2018-09-25T05:07:52.808Z,5.51
2018-09-25T05:10:26.436Z,5.36
2018-09-25T05:12:59.925Z,5.33
2018-09-25T05:15:33.484Z,5.30
2018-09-25T05:18:07.180Z,5.23
2018-09-25T05:20:40.684Z,5.24
2018-09-25T05:23:14.124Z,5.24
2018-09-25T05:25:47.639Z,5.20
2018-09-25T05:28:21.124Z,5.24
2018-09-25T05:30:54.676Z,5.28
2018-09-25T05:33:28.285Z,5.36
2018-09-25T05:36:01.855Z,5.36
2018-09-25T05:38:35.358Z,5.37
2018-09-25T05:41:08.830Z,5.28
2018-09-25T05:43:42.277Z,5.34
2018-09-25T05:46:15.742Z,5.44
2018-09-25T05:48:49.411Z,5.47
2018-09-25T05:51:22.842Z,5.50
2018-09-25T05:53:56.331Z,5.49
2018-09-25T05:56:29.877Z,5.53
2018-09-25T05:59:03.323Z,5.58
2018-09-25T06:01:36.894Z,5.73
2018-09-25T06:04:10.428Z,5.80
2018-09-25T06:06:43.934Z,5.88
2018-09-25T06:09:17.446Z,5.86
2018-09-25T06:11:50.992Z,5.76
2018-09-25T06:14:24.532Z,5.74
2018-09-25T06:16:58.061Z,5.79
2018-09-25T06:19:31.600Z,5.89
2018-09-25T06:22:05.213Z,6.12
2018-09-25T06:24:38.784Z,6.29
2018-09-25T06:27:12.229Z,6.42
2018-09-25T06:29:45.761Z,6.49
2018-09-25T06:32:19.195Z,6.46
2018-09-25T06:34:52.820Z,6.47
2018-09-25T06:37:26.293Z,6.58
2018-09-25T06:39:59.726Z,6.74
2018-09-25T06:42:33.168Z,6.96
2018-09-25T06:45:06.706Z,7.18
2018-09-25T06:47:40.303Z,7.30
2018-09-25T06:50:13.912Z,7.34
2018-09-25T06:52:47.521Z,7.44
2018-09-25T06:55:21.176Z,7.48
2018-09-25T06:57:54.593Z,7.51
2018-09-25T07:00:28.094Z,7.66
2018-09-25T07:03:01.558Z,7.74
2018-09-25T07:05:35.139Z,7.84
2018-09-25T07:08:08.585Z,8.03
2018-09-25T07:10:42.144Z,8.10
2018-09-25T07:13:15.509Z,8.31
2018-09-25T07:15:49.121Z,8.49
2018-09-25T07:18:22.652Z,8.51
2018-09-25T07:20:56.185Z,8.62
2018-09-25T07:23:29.777Z,8.82
2018-09-25T07:26:03.341Z,8.91
2018-09-25T07:28:36.861Z,9.03
2018-09-25T07:31:10.414Z,9.13
2018-09-25T07:33:44.548Z,9.16
2018-09-25T07:36:18.116Z,9.35
2018-09-25T07:38:51.748Z,9.43
2018-09-25T07:41:25.145Z,9.52
2018-09-25T07:43:58.602Z,9.59
2018-09-25T07:46:32.242Z,9.71
2018-09-25T07:49:05.854Z,9.75
2018-09-25T07:51:39.467Z,9.90
2018-09-25T07:54:13.077Z,10.00
2018-09-25T07:56:46.625Z,10.13
2018-09-25T07:59:20.251Z,10.27
2018-09-25T08:01:53.863Z,10.32
2018-09-25T08:04:27.454Z,10.43
2018-09-25T08:07:00.967Z,10.55
2018-09-25T08:09:34.519Z,10.47
2018-09-25T08:12:08.137Z,10.79
2018-09-25T08:14:41.590Z,10.68
2018-09-25T08:17:15.060Z,10.39
2018-09-25T08:19:48.472Z,10.71
2018-09-25T08:22:21.999Z,11.05
2018-09-25T08:24:55.485Z,11.27
2018-09-25T08:27:28.920Z,11.38
2018-09-25T08:30:02.476Z,11.32
2018-09-25T08:32:36.014Z,11.42
2018-09-25T08:35:09.547Z,11.12
2018-09-25T08:37:43.041Z,11.46
2018-09-25T08:40:16.562Z,11.62
2018-09-25T08:42:50.174Z,11.71
2018-09-25T08:45:23.692Z,11.94
2018-09-25T08:47:57.164Z,12.13
2018-09-25T08:50:30.673Z,12.21
2018-09-25T08:53:04.298Z,12.15
2018-09-25T08:55:37.729Z,12.01
2018-09-25T08:58:11.654Z,12.09
2018-09-25T09:00:45.165Z,12.22
2018-09-25T09:03:18.739Z,12.33
2018-09-25T09:05:52.129Z,12.55
2018-09-25T09:08:25.642Z,12.62
2018-09-25T09:10:59.002Z,12.41
2018-09-25T09:13:32.536Z,12.27
2018-09-25T09:16:05.972Z,12.40
2018-09-25T09:18:39.564Z,12.38
2018-09-25T09:21:13.173Z,12.37
2018-09-25T09:23:47.661Z,12.51
2018-09-25T09:26:21.210Z,12.80
2018-09-25T09:28:54.768Z,12.86
2018-09-25T09:31:28.278Z,13.14
2018-09-25T09:34:01.814Z,13.33
2018-09-25T09:36:35.262Z,13.35
2018-09-25T09:39:08.661Z,13.35
2018-09-25T09:41:42.392Z,13.27
2018-09-25T09:44:15.966Z,13.37
2018-09-25T09:46:49.399Z,13.42
2018-09-25T09:49:23.043Z,13.55
2018-09-25T09:51:56.636Z,13.38
2018-09-25T09:54:30.252Z,13.38
2018-09-25T09:57:03.848Z,13.51
2018-09-25T09:59:37.465Z,13.21
2018-09-25T10:02:10.861Z,13.36
2018-09-25T10:04:44.337Z,13.53
2018-09-25T10:07:18.008Z,13.67
2018-09-25T10:09:51.432Z,13.82
2018-09-25T10:12:25.040Z,13.44
2018-09-25T10:14:58.692Z,13.00
2018-09-25T10:17:32.149Z,13.31
2018-09-25T10:20:05.617Z,13.64
2018-09-25T10:22:39.211Z,13.83
2018-09-25T10:25:12.710Z,13.73
2018-09-25T10:27:46.220Z,13.94
2018-09-25T10:30:19.695Z,14.02
2018-09-25T10:32:53.191Z,13.91
2018-09-25T10:35:26.633Z,14.18
2018-09-25T10:38:00.246Z,14.29
2018-09-25T10:40:33.906Z,14.04
2018-09-25T10:43:07.370Z,13.86
2018-09-25T10:45:40.985Z,13.97
2018-09-25T10:48:14.519Z,13.90
2018-09-25T10:50:47.920Z,14.01
2018-09-25T10:53:21.566Z,13.95
2018-09-25T10:55:55.197Z,13.89
2018-09-25T10:58:28.628Z,14.01
2018-09-25T11:01:02.188Z,14.44
2018-09-25T11:03:35.577Z,14.43
2018-09-25T11:06:09.187Z,14.61
2018-09-25T11:08:42.685Z,14.45
2018-09-25T11:11:16.153Z,14.26
2018-09-25T11:13:49.762Z,14.08
2018-09-25T11:16:23.373Z,14.17
2018-09-25T11:18:56.788Z,14.27
2018-09-25T11:21:30.275Z,14.41
2018-09-25T11:24:03.780Z,14.44
2018-09-25T11:26:37.358Z,14.68
2018-09-25T11:29:11.038Z,14.99
2018-09-25T11:31:44.481Z,15.03
2018-09-25T11:34:18.109Z,15.15
2018-09-25T11:36:51.469Z,15.25
2018-09-25T11:39:32.000Z,15.25
2018-09-25T11:42:05.442Z,15.06
2018-09-25T11:44:38.927Z,14.80
2018-09-25T11:47:12.402Z,14.80
2018-09-25T11:49:45.822Z,14.83
2018-09-25T11:52:19.371Z,14.87
2018-09-25T11:54:52.858Z,15.00
2018-09-25T11:57:26.378Z,15.03
2018-09-25T11:59:59.860Z,15.02
2018-09-25T12:02:33.329Z,15.14
2018-09-25T12:05:06.745Z,15.20
2018-09-25T12:07:40.336Z,14.72
2018-09-25T12:10:13.964Z,14.61
2018-09-25T12:12:47.481Z,14.82
2018-09-25T12:15:21.060Z,15.25
2018-09-25T12:17:54.554Z,15.32
2018-09-25T12:20:28.058Z,14.97
2018-09-25T12:23:01.592Z,15.14
2018-09-25T12:25:35.106Z,15.41
2018-09-25T12:28:08.469Z,15.50
2018-09-25T12:30:42.018Z,15.51
2018-09-25T12:33:15.641Z,14.86
2018-09-25T12:35:49.281Z,14.89
2018-09-25T12:38:22.784Z,15.13
2018-09-25T12:40:56.521Z,15.17
2018-09-25T12:43:29.986Z,15.35
2018-09-25T12:46:03.449Z,15.21
2018-09-25T12:48:36.980Z,15.49
2018-09-25T12:51:10.429Z,15.67
2018-09-25T12:53:44.556Z,15.67
2018-09-25T12:56:18.224Z,15.67
2018-09-25T12:58:51.736Z,15.79
2018-09-25T13:01:25.216Z,15.42
2018-09-25T13:03:58.688Z,15.58
2018-09-25T13:06:32.188Z,15.79
2018-09-25T13:09:05.759Z,15.84
2018-09-25T13:11:39.380Z,15.75
2018-09-25T13:14:12.959Z,15.63
2018-09-25T13:16:46.436Z,15.44
2018-09-25T13:19:19.985Z,15.28
2018-09-25T13:21:53.475Z,14.92
2018-09-25T13:24:26.976Z,14.76
2018-09-25T13:27:00.561Z,14.82
2018-09-25T13:29:34.125Z,14.65
2018-09-25T13:32:07.720Z,14.76
2018-09-25T13:34:41.203Z,14.72
2018-09-25T13:37:14.842Z,14.56
2018-09-25T13:39:48.466Z,14.67
2018-09-25T13:42:22.017Z,14.57
2018-09-25T13:44:55.600Z,14.65
2018-09-25T13:47:29.018Z,14.55
2018-09-25T13:50:02.416Z,14.67
2018-09-25T13:52:35.878Z,14.96
2018-09-25T13:55:09.267Z,15.11
2018-09-25T13:57:42.832Z,15.16
2018-09-25T14:00:16.359Z,15.23
2018-09-25T14:02:49.897Z,14.79
2018-09-25T14:05:23.470Z,14.86
2018-09-25T14:07:57.047Z,14.64
2018-09-25T14:10:30.648Z,14.89
2018-09-25T14:13:04.097Z,15.04
2018-09-25T14:15:37.669Z,15.27
2018-09-25T14:18:11.266Z,15.37
2018-09-25T14:20:44.744Z,15.18
2018-09-25T14:23:18.280Z,15.01
2018-09-25T14:25:51.706Z,15.23
2018-09-25T14:28:25.146Z,15.33
2018-09-25T14:30:58.544Z,15.08
2018-09-25T14:33:33.025Z,14.86
2018-09-25T14:36:06.492Z,15.04
2018-09-25T14:38:39.920Z,15.13
2018-09-25T14:41:13.495Z,15.20
2018-09-25T14:43:47.018Z,15.03
2018-09-25T14:46:20.540Z,15.11
2018-09-25T14:48:54.127Z,14.98
2018-09-25T14:51:27.669Z,14.98
2018-09-25T14:54:01.190Z,14.99
2018-09-25T14:56:34.631Z,14.99
2018-09-25T14:59:08.203Z,14.95
2018-09-25T15:01:41.636Z,15.02
2018-09-25T15:04:15.199Z,15.00
2018-09-25T15:06:48.601Z,14.84
2018-09-25T15:09:22.217Z,14.84
2018-09-25T15:11:55.832Z,14.83
2018-09-25T15:14:29.286Z,14.82
2018-09-25T15:17:02.771Z,14.81
2018-09-25T15:19:36.399Z,14.86
2018-09-25T15:22:10.177Z,14.82
2018-09-25T15:24:43.304Z,14.89
2018-09-25T15:27:16.940Z,15.02
2018-09-25T15:29:50.445Z,15.11
2018-09-25T15:32:23.913Z,15.01
2018-09-25T15:34:57.399Z,15.15
2018-09-25T15:37:30.875Z,15.17
2018-09-25T15:40:04.487Z,15.19
2018-09-25T15:42:38.124Z,15.21
2018-09-25T15:45:11.602Z,15.25
2018-09-25T15:47:45.080Z,15.09
2018-09-25T15:50:18.540Z,15.03
2018-09-25T15:52:51.992Z,14.91
2018-09-25T15:55:25.572Z,14.85
2018-09-25T15:57:59.030Z,14.73
2018-09-25T16:00:32.484Z,14.63
2018-09-25T16:03:06.023Z,14.53
2018-09-25T16:06:42.648Z,14.51
2018-09-25T16:09:16.096Z,14.25
2018-09-25T16:11:49.640Z,14.05
2018-09-25T16:14:23.259Z,13.91
2018-09-25T16:16:56.755Z,13.95
2018-09-25T16:19:30.165Z,13.88
2018-09-25T16:22:03.642Z,13.85
2018-09-25T16:24:37.176Z,13.78
2018-09-25T16:27:10.652Z,13.67
2018-09-25T16:29:44.176Z,13.66
2018-09-25T16:32:17.627Z,13.60
2018-09-25T16:34:51.286Z,13.53
2018-09-25T16:37:24.774Z,13.49
2018-09-25T16:39:58.230Z,13.59
2018-09-25T16:42:31.881Z,13.56
2018-09-25T16:45:05.523Z,13.51
2018-09-25T16:47:38.946Z,13.34
2018-09-25T16:50:12.490Z,13.33
2018-09-25T16:52:46.045Z,13.28
2018-09-25T16:55:19.475Z,13.18
2018-09-25T16:57:52.965Z,13.19
2018-09-25T17:00:26.477Z,13.05
2018-09-25T17:03:00.045Z,13.00
2018-09-25T17:05:33.620Z,12.92
2018-09-25T17:08:07.149Z,12.75
2018-09-25T17:10:40.556Z,12.76
2018-09-25T17:13:14.283Z,12.58
2018-09-25T17:15:47.837Z,12.51
2018-09-25T17:18:21.536Z,12.48
2018-09-25T17:20:55.156Z,12.36
2018-09-25T17:23:28.767Z,12.37
2018-09-25T17:26:02.309Z,12.31
2018-09-25T17:28:35.781Z,12.23
2018-09-25T17:31:09.446Z,12.17
2018-09-25T17:33:42.929Z,12.13
2018-09-25T17:36:16.329Z,12.03
2018-09-25T17:38:49.891Z,12.00
2018-09-25T17:41:23.355Z,11.93
2018-09-25T17:43:56.926Z,11.75
2018-09-25T17:46:30.541Z,11.53
2018-09-25T17:49:04.142Z,11.43
2018-09-25T17:51:38.184Z,11.41
2018-09-25T17:54:11.763Z,11.33
2018-09-25T17:56:45.225Z,11.33
2018-09-25T17:59:18.993Z,11.26
2018-09-25T18:01:52.880Z,11.19
2018-09-25T18:04:26.380Z,11.12
2018-09-25T18:06:59.840Z,11.06
2018-09-25T18:09:33.459Z,11.11
2018-09-25T18:12:13.680Z,11.18
2018-09-25T18:14:47.271Z,11.23
2018-09-25T18:17:20.705Z,11.25
2018-09-25T18:19:54.177Z,11.29
2018-09-25T18:22:27.769Z,11.32
2018-09-25T18:25:01.313Z,11.39
2018-09-25T18:27:34.898Z,11.42
2018-09-25T18:30:08.422Z,11.38
2018-09-25T18:32:41.960Z,11.30
2018-09-25T18:35:15.481Z,11.38
2018-09-25T18:37:48.894Z,11.38
2018-09-25T18:40:22.337Z,11.37
2018-09-25T18:42:55.823Z,11.38
2018-09-25T18:45:29.301Z,11.43
2018-09-25T18:48:02.937Z,11.43
2018-09-25T18:50:36.605Z,11.41
2018-09-25T18:53:10.033Z,11.35
2018-09-25T18:55:43.690Z,11.24
2018-09-25T18:58:17.284Z,11.18
2018-09-25T19:00:51.700Z,11.14
2018-09-25T19:03:25.123Z,11.16
2018-09-25T19:05:58.734Z,11.14
2018-09-25T19:08:32.498Z,11.24
2018-09-25T19:11:05.907Z,11.14
2018-09-25T19:13:39.434Z,11.03
2018-09-25T19:16:16.087Z,10.99
2018-09-25T19:18:49.544Z,10.93
2018-09-25T19:21:23.119Z,10.97
2018-09-25T19:23:56.661Z,10.98
2018-09-25T19:26:30.209Z,10.92
2018-09-25T19:29:03.646Z,10.88
2018-09-25T19:31:37.092Z,10.77
2018-09-25T19:34:10.491Z,10.71
2018-09-25T19:36:44.043Z,10.71
2018-09-25T19:39:17.493Z,10.62
2018-09-25T19:41:51.150Z,10.62
2018-09-25T19:44:24.616Z,10.62
2018-09-25T19:46:58.268Z,10.62
2018-09-25T19:49:31.692Z,10.56
2018-09-25T19:52:05.290Z,10.54
2018-09-25T19:54:38.822Z,10.48
2018-09-25T19:57:12.597Z,10.44
2018-09-25T19:59:46.378Z,10.43
2018-09-25T20:02:20.438Z,10.33
2018-09-25T20:04:54.921Z,10.35
2018-09-25T20:07:28.320Z,10.27
2018-09-25T20:10:01.799Z,10.28
2018-09-25T20:12:35.407Z,10.22
2018-09-25T20:15:08.896Z,10.15
2018-09-25T20:17:42.440Z,10.03
2018-09-25T20:20:16.032Z,9.99
2018-09-25T20:22:49.685Z,9.94
2018-09-25T20:25:23.217Z,9.91
2018-09-25T20:27:56.762Z,9.83
2018-09-25T20:30:30.360Z,9.85
2018-09-25T20:33:03.823Z,9.78
2018-09-25T20:35:37.370Z,9.74
2018-09-25T20:38:10.815Z,9.68
2018-09-25T20:40:44.224Z,9.67
2018-09-25T20:43:17.713Z,9.74
2018-09-25T20:45:51.230Z,9.75
2018-09-25T20:48:24.669Z,9.67
2018-09-25T20:50:58.301Z,9.57
2018-09-25T20:53:31.829Z,9.59
2018-09-25T20:56:05.343Z,9.50
2018-09-25T20:58:38.907Z,9.43
2018-09-25T21:01:12.437Z,9.39
2018-09-25T21:03:46.139Z,9.41
2018-09-25T21:06:19.617Z,9.41
2018-09-25T21:08:53.050Z,9.45
2018-09-25T21:11:26.663Z,9.36
2018-09-25T21:14:00.092Z,9.36
2018-09-25T21:16:33.683Z,9.34
2018-09-25T21:19:07.277Z,9.38
2018-09-25T21:21:40.773Z,9.32
2018-09-25T21:24:14.345Z,9.41
2018-09-25T21:26:47.976Z,9.34
2018-09-25T21:29:21.375Z,9.38
2018-09-25T21:31:54.999Z,9.44
2018-09-25T21:34:28.577Z,9.49
2018-09-25T21:37:02.044Z,9.57
2018-09-25T21:39:35.676Z,9.55
2018-09-25T21:42:09.223Z,9.60
2018-09-25T21:44:42.816Z,9.61
2018-09-25T21:47:16.269Z,9.63
2018-09-25T21:49:49.702Z,9.64
2018-09-25T21:52:23.288Z,9.61
2018-09-25T21:54:56.717Z,9.58
2018-09-25T21:57:30.434Z,9.60
2018-09-25T22:00:03.780Z,9.59
2018-09-25T22:02:37.216Z,9.53
2018-09-25T22:05:10.779Z,9.50
2018-09-25T22:07:44.324Z,9.46
2018-09-25T22:10:17.990Z,9.32
2018-09-25T22:12:51.413Z,9.35
2018-09-25T22:15:24.982Z,9.25
2018-09-25T22:17:58.388Z,9.17
2018-09-25T22:20:31.997Z,9.10
2018-09-25T22:23:05.458Z,9.13
2018-09-25T22:25:39.003Z,9.11
2018-09-25T22:28:12.560Z,9.15
2018-09-25T22:30:46.099Z,9.16
2018-09-25T22:33:19.637Z,9.22
2018-09-25T22:35:53.213Z,9.27
2018-09-25T22:38:26.633Z,9.27
2018-09-25T22:41:00.112Z,9.32
2018-09-25T22:43:33.656Z,9.22
2018-09-25T22:46:07.221Z,9.33
2018-09-25T22:48:40.822Z,9.28
2018-09-25T22:51:14.288Z,9.33
2018-09-25T22:53:47.784Z,9.42
2018-09-25T22:56:21.329Z,9.39
2018-09-25T22:58:54.904Z,9.34
2018-09-25T23:01:28.629Z,9.37
2018-09-25T23:04:02.090Z,9.35
2018-09-25T23:06:35.472Z,9.36
2018-09-25T23:09:09.397Z,9.41
2018-09-25T23:11:42.841Z,9.26
2018-09-25T23:14:16.255Z,9.27
2018-09-25T23:16:49.665Z,9.37
2018-09-25T23:19:23.237Z,9.38
2018-09-25T23:21:56.607Z,9.37
2018-09-25T23:24:30.228Z,9.29
2018-09-25T23:27:03.664Z,9.30
2018-09-25T23:29:37.157Z,9.28
2018-09-25T23:32:10.733Z,9.31
2018-09-25T23:34:44.320Z,9.37
2018-09-25T23:37:17.813Z,9.35
2018-09-25T23:39:51.329Z,9.42
2018-09-25T23:42:24.544Z,9.45
2018-09-25T23:45:04.909Z,9.47
2018-09-25T23:47:43.890Z,9.46
2018-09-25T23:50:16.012Z,9.43
2018-09-25T23:52:48.308Z,9.48
2018-09-25T23:55:19.735Z,9.44
2018-09-25T23:57:52.048Z,9.32
